Kenai, AK

10:00 AM AKST on November 27, 2014 (GMT -0900)
Anchorage | Change Station
CLOSE
Current Station
Airport
Location: Anchorage,
Elevation: 144 ft
Nearby Weather Stations

Elev 144 ft 61.17 °N, 150.03 °W | Updated 1 hour ago

Overcast
Overcast
20 °F
Feels Like 12 °F
N
6
Wind Variable Wind from East

Today
High -- | Low -- °F
--% Chance of Precip.
Yesterday
High -- | Low -- °F
Precip. -- in
9:36 AM 4:08 PM
Waxing Crescent, 32% visible
Pressure 30.22 in
Visibility 10.0 miles
Clouds Few 500 ft
Mostly Cloudy 1300 ft
Overcast 20000 ft
Windchill 12 °F
Dew Point 16 °F
Humidity 85%
Rainfall 0.00 in
Snow Depth Not available.
UV 0 out of 12
Pollen Not available.
Air Quality Not available.
Flu Activity Not available.
METAR PANC 271753Z 09005KT 10SM FEW005 BKN013 OVC200 M07/M09 A3021 RMK AO2 SLP234 T10671089 11067 21089 58003

More Conditions Fewer Conditions

Pressure 30.22 in
Visibility 10.0 miles
Clouds Few 500 ft
Mostly Cloudy 1300 ft
Overcast 20000 ft
Windchill 12 °F
Dew Point 16 °F
Humidity 85%
Rainfall 0.00 in
Snow Depth Not available.
UV 0 out of 12
Pollen Not available.
Air Quality Not available.
Flu Activity Not available.
METAR PANC 271753Z 09005KT 10SM FEW005 BKN013 OVC200 M07/M09 A3021 RMK AO2 SLP234 T10671089 11067 21089 58003

More Conditions Fewer Conditions

10-Day Weather Forecast

Almanac

Astronomy

Nov. 27, 2014 Rise Set
Actual Time
Civil Twilight
Nautical Twilight
Astronomical Twilight
Moon
Length of Visible Light
Length of Day
Tomorrow will be .
, % of the Moon is Illuminated

Today's Extremes

State Highs State Lows

Community

WunderPhotos

Upload Photos

1,774,088 photos uploaded!

WunderBlogs® & News

Nearby

Air Quality

  Air Quality AQ Index Pollutant
Not available.

Snow Depth

Station Depth Elevation

Earthquake Activity

City Distance Mag. Time & Date
Minimum magnitude displayed is 2.5.

Coastal Water Temperatures

Place Temperature

Nearby Weather Stations